Time;durP1;ratioP1;P1;durP2;ratioP2;P2;SDS_P1;SDS_P2;PMS_P1;PMS_P2;Temp;Humidity;BMP_temperature;BMP_pressure;BME280_temperature;BME280_humidity;BME280_pressure;Samples;Min_cycle;Max_cycle;Signal;HPM_P1;HPM_P2
2022/12/21 00:01:38;;;;;;;25.60;16.15;;;;;;;;;;4981432;28;20106;-68
2022/12/21 00:04:04;;;;;;;15.65;13.43;;;;;;;;;;4978332;28;20440;-68
2022/12/21 00:06:33;;;;;;;22.73;15.88;;;;;;;;;;4985687;28;20065;-68
2022/12/21 00:09:00;;;;;;;22.13;14.52;;;;;;;;;;4984681;28;20054;-68
2022/12/21 00:11:27;;;;;;;21.45;14.65;;;;;;;;;;4991024;28;20038;-68
2022/12/21 00:13:55;;;;;;;21.23;14.85;;;;;;;;;;4986258;28;20066;-69
2022/12/21 00:16:23;;;;;;;17.10;13.30;;;;;;;;;;4982988;28;20041;-68
2022/12/21 00:18:49;;;;;;;16.50;14.45;;;;;;;;;;4983645;28;20034;-68
2022/12/21 00:21:20;;;;;;;18.40;14.95;;;;;;;;;;4982107;28;20524;-68
2022/12/21 00:23:48;;;;;;;19.25;14.45;;;;;;;;;;4970257;28;20037;-68
2022/12/21 00:26:16;;;;;;;16.48;13.48;;;;;;;;;;4976975;28;20038;-68
2022/12/21 00:28:43;;;;;;;14.77;13.27;;;;;;;;;;4982534;28;20089;-68
2022/12/21 00:31:14;;;;;;;21.95;15.63;;;;;;;;;;4979681;28;20041;-68
2022/12/21 00:33:42;;;;;;;20.05;14.73;;;;;;;;;;4977238;28;20084;-68
2022/12/21 00:36:10;;;;;;;12.70;11.38;;;;;;;;;;4979469;28;20138;-68
2022/12/21 00:38:36;;;;;;;22.33;16.42;;;;;;;;;;4979789;28;20040;-68
2022/12/21 00:41:05;;;;;;;15.25;13.52;;;;;;;;;;4979233;28;20042;-68
2022/12/21 00:43:34;;;;;;;18.30;13.07;;;;;;;;;;4980913;28;20100;-68
2022/12/21 00:46:00;;;;;;;16.13;13.90;;;;;;;;;;4977736;28;20383;-68
2022/12/21 00:48:27;;;;;;;17.20;14.23;;;;;;;;;;4981237;28;20121;-68
2022/12/21 00:50:53;;;;;;;15.18;12.95;;;;;;;;;;4971491;28;20073;-68
2022/12/21 00:53:19;;;;;;;16.95;13.23;;;;;;;;;;4970546;28;20178;-68
2022/12/21 00:55:58;;;;;;;14.00;12.27;;;;;;;;;;4979409;28;20045;-68
2022/12/21 00:58:24;;;;;;;;;;;;;;;;;;4980256;28;20114;-68
2022/12/21 01:00:55;;;;;;;20.05;13.13;;;;;;;;;;4979141;28;19972;-68
2022/12/21 01:03:21;;;;;;;16.48;13.45;;;;;;;;;;4980170;28;20038;-68
2022/12/21 01:05:50;;;;;;;21.60;14.68;;;;;;;;;;4979775;28;20046;-68
2022/12/21 01:08:19;;;;;;;22.88;14.05;;;;;;;;;;4969590;28;20522;-68
2022/12/21 01:10:45;;;;;;;19.33;14.95;;;;;;;;;;4981453;28;20042;-68
2022/12/21 01:13:12;;;;;;;21.10;14.80;;;;;;;;;;4980635;28;20035;-68
2022/12/21 01:15:42;;;;;;;17.10;13.95;;;;;;;;;;4981036;28;20049;-68
2022/12/21 01:18:10;;;;;;;15.93;13.32;;;;;;;;;;4980239;28;20486;-68
2022/12/21 01:20:48;;;;;;;19.73;14.90;;;;;;;;;;4978791;28;20061;-68
2022/12/21 01:23:17;;;;;;;18.17;14.93;;;;;;;;;;4978102;28;20482;-68
2022/12/21 01:25:44;;;;;;;19.60;14.93;;;;;;;;;;4963613;28;20030;-68
2022/12/21 01:28:09;;;;;;;16.50;14.73;;;;;;;;;;4977924;28;20039;-68
2022/12/21 01:30:35;;;;;;;21.77;15.25;;;;;;;;;;4981506;28;20105;-68
2022/12/21 01:33:01;;;;;;;18.33;14.90;;;;;;;;;;4979505;28;20121;-68
2022/12/21 01:35:26;;;;;;;22.83;16.13;;;;;;;;;;4981110;28;20034;-68
2022/12/21 01:37:52;;;;;;;20.15;14.93;;;;;;;;;;4981237;28;20040;-68
2022/12/21 01:40:18;;;;;;;19.13;15.07;;;;;;;;;;4982064;28;20085;-68
2022/12/21 01:42:44;;;;;;;17.33;14.60;;;;;;;;;;4984836;28;20701;-68
2022/12/21 01:45:29;;;;;;;14.15;12.38;;;;;;;;;;4985400;28;20096;-68
2022/12/21 01:47:59;;;;;;;20.50;14.65;;;;;;;;;;4982323;28;20038;-67
2022/12/21 01:50:38;;;;;;;19.33;15.00;;;;;;;;;;4983655;28;20041;-68
2022/12/21 01:53:18;;;;;;;17.35;14.73;;;;;;;;;;4982654;28;20030;-68
2022/12/21 01:55:49;;;;;;;18.45;14.35;;;;;;;;;;4998689;28;20041;-68
2022/12/21 01:58:17;;;;;;;11.93;10.77;;;;;;;;;;4984278;28;20039;-68
2022/12/21 02:00:43;;;;;;;16.15;12.15;;;;;;;;;;4977361;28;20483;-68
2022/12/21 02:03:16;;;;;;;17.02;13.75;;;;;;;;;;4986994;28;20038;-68
2022/12/21 02:05:51;;;;;;;10.13;9.18;;;;;;;;;;4985751;28;20045;-68
2022/12/21 02:08:16;;;;;;;12.88;11.52;;;;;;;;;;4980322;28;20043;-68
2022/12/21 02:10:43;;;;;;;13.98;11.85;;;;;;;;;;4983197;28;20057;-68
2022/12/21 02:13:13;;;;;;;19.08;12.70;;;;;;;;;;4981387;28;20034;-67
2022/12/21 02:15:51;;;;;;;16.70;13.48;;;;;;;;;;4988183;28;20209;-68
2022/12/21 02:18:35;;;;;;;16.95;13.57;;;;;;;;;;4981615;28;20115;-68
2022/12/21 02:21:32;;;;;;;17.42;13.05;;;;;;;;;;4986012;28;20907;-68
2022/12/21 02:24:35;;;;;;;13.93;11.25;;;;;;;;;;4979686;28;20096;-67
2022/12/21 02:27:19;;;;;;;12.57;10.88;;;;;;;;;;4982670;28;20034;-68
2022/12/21 02:30:07;;;;;;;16.27;13.73;;;;;;;;;;4980420;28;20045;-68
2022/12/21 02:32:52;;;;;;;20.10;13.48;;;;;;;;;;4982210;28;20034;-68
2022/12/21 02:35:30;;;;;;;19.55;12.95;;;;;;;;;;4982848;28;20050;-68
2022/12/21 02:38:31;;;;;;;13.32;11.30;;;;;;;;;;4985478;28;20113;-68
2022/12/21 02:41:03;;;;;;;15.45;13.02;;;;;;;;;;4982081;28;20197;-68
2022/12/21 02:44:15;;;;;;;14.15;11.48;;;;;;;;;;4981300;28;20038;-68
2022/12/21 02:47:02;;;;;;;15.38;12.82;;;;;;;;;;4983305;28;20121;-68
2022/12/21 02:49:32;;;;;;;14.25;11.70;;;;;;;;;;4984247;28;20729;-68
2022/12/21 02:52:04;;;;;;;20.83;15.50;;;;;;;;;;4983138;28;20413;-68
2022/12/21 02:54:30;;;;;;;17.02;14.98;;;;;;;;;;4984013;28;20033;-68
2022/12/21 02:56:58;;;;;;;18.35;14.85;;;;;;;;;;4980891;28;20033;-68
2022/12/21 02:59:29;;;;;;;15.07;13.48;;;;;;;;;;4981091;28;20299;-68
2022/12/21 03:02:18;;;;;;;16.05;13.13;;;;;;;;;;4987603;28;20034;-68
2022/12/21 03:05:02;;;;;;;13.63;11.80;;;;;;;;;;4985325;28;20030;-68
2022/12/21 03:07:38;;;;;;;15.40;12.20;;;;;;;;;;4988141;28;20030;-68
2022/12/21 03:10:29;;;;;;;23.63;12.35;;;;;;;;;;4985808;28;20638;-68
2022/12/21 03:13:19;;;;;;;10.05;9.20;;;;;;;;;;4989133;28;20041;-67
2022/12/21 03:16:06;;;;;;;17.60;13.20;;;;;;;;;;4981702;28;20501;-68
2022/12/21 03:19:06;;;;;;;8.80;8.07;;;;;;;;;;4987228;28;20033;-68
2022/12/21 03:22:01;;;;;;;16.58;12.63;;;;;;;;;;4983941;28;20367;-68
2022/12/21 03:24:45;;;;;;;17.33;13.80;;;;;;;;;;4991919;28;20064;-70
2022/12/21 03:27:17;;;;;;;16.40;14.73;;;;;;;;;;4987515;28;20121;-70
2022/12/21 03:29:50;;;;;;;16.20;12.75;;;;;;;;;;4988078;28;20030;-71
2022/12/21 03:32:24;;;;;;;16.77;13.18;;;;;;;;;;4988828;28;20045;-70
2022/12/21 03:34:52;;;;;;;14.02;12.30;;;;;;;;;;4986035;28;20410;-70
2022/12/21 03:37:23;;;;;;;15.98;12.30;;;;;;;;;;4988283;28;20042;-70
2022/12/21 03:39:55;;;;;;;15.13;13.52;;;;;;;;;;4985133;28;20457;-70
2022/12/21 03:42:29;;;;;;;15.18;12.95;;;;;;;;;;4989566;28;20038;-70
2022/12/21 03:45:20;;;;;;;13.38;12.00;;;;;;;;;;4990265;28;20038;-71
2022/12/21 03:47:58;;;;;;;12.68;11.05;;;;;;;;;;4985470;28;20121;-70
2022/12/21 03:50:29;;;;;;;13.38;11.98;;;;;;;;;;4981932;28;20034;-70
2022/12/21 03:53:02;;;;;;;12.13;10.82;;;;;;;;;;4989552;28;20506;-70
2022/12/21 03:55:31;;;;;;;12.85;11.50;;;;;;;;;;4987950;28;20041;-71
2022/12/21 03:57:58;;;;;;;12.32;11.07;;;;;;;;;;4985519;28;20096;-70
2022/12/21 04:00:26;;;;;;;13.90;11.15;;;;;;;;;;4990610;28;20030;-70
2022/12/21 04:03:02;;;;;;;14.93;11.17;;;;;;;;;;4978901;28;20062;-70
2022/12/21 04:05:33;;;;;;;14.27;11.10;;;;;;;;;;4980559;28;20648;-71
2022/12/21 04:08:00;;;;;;;11.07;9.65;;;;;;;;;;4981927;28;20621;-71
2022/12/21 04:10:27;;;;;;;12.48;11.18;;;;;;;;;;4982983;28;20042;-71
2022/12/21 04:12:52;;;;;;;13.48;10.45;;;;;;;;;;4983446;28;20038;-71
2022/12/21 04:15:21;;;;;;;12.50;11.20;;;;;;;;;;4981396;28;20045;-70
2022/12/21 04:17:50;;;;;;;11.73;10.73;;;;;;;;;;4979785;28;20106;-70
2022/12/21 04:20:24;;;;;;;12.07;9.98;;;;;;;;;;4983062;28;20074;-71
2022/12/21 04:28:29;;;;;;;12.52;11.27;;;;;;;;;;4981303;28;20034;-70
2022/12/21 04:30:55;;;;;;;12.10;10.85;;;;;;;;;;4981618;28;20147;-70
2022/12/21 04:33:22;;;;;;;14.73;12.95;;;;;;;;;;4980661;28;20919;-70
2022/12/21 04:38:35;;;;;;;18.48;13.88;;;;;;;;;;4979958;28;20113;-70
2022/12/21 04:41:01;;;;;;;14.15;12.57;;;;;;;;;;4977789;28;20082;-70
2022/12/21 04:43:27;;;;;;;14.80;13.10;;;;;;;;;;4984243;28;20038;-70
2022/12/21 04:46:05;;;;;;;15.68;12.40;;;;;;;;;;4980556;28;20069;-70
2022/12/21 04:48:31;;;;;;;12.93;11.63;;;;;;;;;;4980066;28;20029;-70
2022/12/21 04:51:05;;;;;;;10.55;9.65;;;;;;;;;;4980506;28;20202;-70
2022/12/21 04:53:31;;;;;;;14.75;12.40;;;;;;;;;;4979168;28;20039;-70
2022/12/21 04:55:56;;;;;;;14.23;12.23;;;;;;;;;;4983151;28;20045;-71
2022/12/21 04:58:22;;;;;;;15.30;13.32;;;;;;;;;;4977923;28;20046;-70
2022/12/21 05:00:47;;;;;;;18.80;16.83;;;;;;;;;;4983183;28;20158;-70
2022/12/21 05:03:13;;;;;;;19.05;17.27;;;;;;;;;;4984048;28;20035;-69
2022/12/21 05:05:38;;;;;;;15.27;13.70;;;;;;;;;;4981738;28;20039;-70
2022/12/21 05:08:04;;;;;;;11.48;10.45;;;;;;;;;;4982207;28;20069;-71
2022/12/21 05:10:30;;;;;;;11.02;10.13;;;;;;;;;;4979394;28;20034;-70
2022/12/21 05:12:55;;;;;;;10.68;9.68;;;;;;;;;;4983160;28;20505;-70
2022/12/21 05:15:21;;;;;;;9.80;9.02;;;;;;;;;;4982619;28;20514;-71
2022/12/21 05:17:46;;;;;;;9.13;8.38;;;;;;;;;;4986967;28;20033;-70
2022/12/21 05:20:12;;;;;;;10.25;9.43;;;;;;;;;;4985803;28;20034;-71
2022/12/21 05:22:37;;;;;;;10.60;9.70;;;;;;;;;;4984657;28;20045;-70
2022/12/21 05:25:03;;;;;;;9.60;8.80;;;;;;;;;;4980863;28;20617;-70
2022/12/21 05:27:29;;;;;;;12.35;10.43;;;;;;;;;;4983470;28;20627;-71
2022/12/21 05:29:54;;;;;;;10.07;8.88;;;;;;;;;;4984288;28;20038;-71
2022/12/21 05:32:20;;;;;;;10.80;9.80;;;;;;;;;;4986673;28;20552;-70
2022/12/21 05:34:45;;;;;;;10.85;9.85;;;;;;;;;;4986421;28;20061;-71
2022/12/21 05:37:11;;;;;;;9.98;9.25;;;;;;;;;;4983665;28;20038;-71
2022/12/21 05:39:36;;;;;;;11.93;10.73;;;;;;;;;;4979822;28;20125;-70
2022/12/21 05:42:03;;;;;;;10.85;9.82;;;;;;;;;;4987431;28;20041;-71
2022/12/21 05:44:28;;;;;;;11.02;9.93;;;;;;;;;;4982498;28;20073;-71
2022/12/21 05:46:54;;;;;;;12.27;10.60;;;;;;;;;;4984557;28;20644;-70
2022/12/21 05:49:20;;;;;;;11.50;10.43;;;;;;;;;;4984885;28;20097;-71
2022/12/21 05:51:47;;;;;;;10.85;9.93;;;;;;;;;;4986367;28;20046;-70
2022/12/21 05:54:14;;;;;;;11.70;10.50;;;;;;;;;;4984748;28;20065;-70
2022/12/21 05:56:39;;;;;;;11.25;10.25;;;;;;;;;;4983772;28;20092;-71
2022/12/21 05:59:05;;;;;;;11.15;10.05;;;;;;;;;;4984385;28;20644;-70
2022/12/21 06:01:30;;;;;;;11.48;9.98;;;;;;;;;;4983479;28;20057;-70
2022/12/21 06:03:56;;;;;;;12.20;11.05;;;;;;;;;;4978595;28;20330;-70
2022/12/21 06:06:21;;;;;;;13.65;11.52;;;;;;;;;;4984620;28;20026;-71
2022/12/21 06:08:47;;;;;;;11.65;10.55;;;;;;;;;;4987833;28;20062;-70
2022/12/21 06:11:17;;;;;;;11.25;10.15;;;;;;;;;;4989096;28;20037;-70
2022/12/21 06:13:44;;;;;;;10.32;9.40;;;;;;;;;;4987181;28;20038;-70
2022/12/21 06:16:16;;;;;;;12.82;10.85;;;;;;;;;;4988420;28;20026;-70
2022/12/21 06:18:42;;;;;;;11.40;10.32;;;;;;;;;;4984707;28;20046;-70
2022/12/21 06:21:10;;;;;;;10.52;9.63;;;;;;;;;;4986389;28;20096;-70
2022/12/21 06:23:37;;;;;;;11.70;9.98;;;;;;;;;;4981147;28;20635;-71
2022/12/21 06:26:04;;;;;;;10.98;9.95;;;;;;;;;;4983958;28;20498;-70
2022/12/21 06:28:30;;;;;;;11.00;9.23;;;;;;;;;;4983632;28;20034;-70
2022/12/21 06:31:02;;;;;;;10.55;9.45;;;;;;;;;;4987806;28;20034;-71
2022/12/21 06:33:28;;;;;;;10.23;9.43;;;;;;;;;;4983766;28;20410;-70
2022/12/21 06:35:55;;;;;;;10.52;9.52;;;;;;;;;;4982865;28;20502;-71
2022/12/21 06:38:22;;;;;;;9.68;8.88;;;;;;;;;;4983795;28;20085;-70
2022/12/21 06:41:02;;;;;;;10.02;9.23;;;;;;;;;;4993912;28;20092;-70
2022/12/21 06:43:30;;;;;;;10.13;9.10;;;;;;;;;;4987246;28;20022;-70
2022/12/21 06:45:58;;;;;;;9.25;8.32;;;;;;;;;;4982218;28;20033;-70
2022/12/21 06:48:24;;;;;;;9.85;9.02;;;;;;;;;;4983361;28;20058;-70
2022/12/21 06:51:01;;;;;;;14.38;9.68;;;;;;;;;;4985181;28;20124;-71
2022/12/21 06:53:30;;;;;;;10.63;9.57;;;;;;;;;;4983919;28;20410;-69
2022/12/21 06:56:00;;;;;;;10.60;9.70;;;;;;;;;;4984490;28;20030;-71
2022/12/21 06:58:26;;;;;;;10.75;9.10;;;;;;;;;;4981652;28;20505;-71
2022/12/21 07:00:52;;;;;;;10.93;9.80;;;;;;;;;;4983767;28;20049;-71
2022/12/21 07:03:17;;;;;;;10.15;9.35;;;;;;;;;;4986242;28;20038;-71
2022/12/21 07:05:43;;;;;;;10.73;9.60;;;;;;;;;;4986913;28;20030;-71
2022/12/21 07:08:08;;;;;;;10.07;9.18;;;;;;;;;;4981275;28;20038;-71
2022/12/21 07:10:37;;;;;;;10.63;9.75;;;;;;;;;;4985404;28;20030;-71
2022/12/21 07:13:03;;;;;;;10.05;9.25;;;;;;;;;;4984060;28;20030;-71
2022/12/21 07:15:31;;;;;;;10.68;9.77;;;;;;;;;;4985393;28;20034;-74
2022/12/21 07:17:57;;;;;;;10.25;9.40;;;;;;;;;;4982035;28;20038;-74
2022/12/21 07:20:23;;;;;;;10.27;9.50;;;;;;;;;;4984639;28;20034;-74
2022/12/21 07:22:49;;;;;;;11.00;10.05;;;;;;;;;;4984591;28;20034;-75
2022/12/21 07:25:14;;;;;;;10.73;9.88;;;;;;;;;;4985320;28;20049;-75
2022/12/21 07:27:40;;;;;;;10.90;9.90;;;;;;;;;;4983362;28;20041;-75
2022/12/21 07:30:06;;;;;;;11.13;9.88;;;;;;;;;;4985911;28;20501;-75
2022/12/21 07:32:32;;;;;;;10.57;9.70;;;;;;;;;;4984052;28;20113;-74
2022/12/21 07:34:58;;;;;;;14.10;11.98;;;;;;;;;;4984646;28;20172;-75
2022/12/21 07:37:23;;;;;;;14.35;12.18;;;;;;;;;;4984342;28;20486;-74
2022/12/21 07:39:49;;;;;;;15.30;12.30;;;;;;;;;;4985197;28;20204;-74
2022/12/21 07:42:14;;;;;;;12.15;10.80;;;;;;;;;;4984757;28;20923;-74
2022/12/21 07:44:52;;;;;;;15.00;11.48;;;;;;;;;;4982522;28;20041;-75
2022/12/21 07:47:26;;;;;;;14.27;12.82;;;;;;;;;;4981588;28;20118;-74
2022/12/21 07:49:51;;;;;;;15.27;13.70;;;;;;;;;;4983265;28;20126;-75
2022/12/21 07:52:17;;;;;;;17.33;13.90;;;;;;;;;;4981696;28;20542;-74
2022/12/21 07:54:42;;;;;;;20.30;13.05;;;;;;;;;;4979817;28;20558;-74
2022/12/21 07:57:08;;;;;;;11.35;9.98;;;;;;;;;;4984209;28;20032;-75
2022/12/21 07:59:33;;;;;;;10.40;9.52;;;;;;;;;;4983711;28;20690;-74
2022/12/21 08:01:59;;;;;;;10.85;10.00;;;;;;;;;;4984381;28;20038;-74
2022/12/21 08:04:24;;;;;;;12.63;11.13;;;;;;;;;;4983132;28;20069;-74
2022/12/21 08:06:50;;;;;;;11.02;10.05;;;;;;;;;;4982839;28;20141;-74
2022/12/21 08:09:15;;;;;;;15.73;11.57;;;;;;;;;;4981433;28;20030;-74
2022/12/21 08:11:41;;;;;;;12.75;11.55;;;;;;;;;;4986752;28;20038;-74
2022/12/21 08:14:06;;;;;;;13.02;11.60;;;;;;;;;;4981851;28;20038;-74
2022/12/21 08:16:32;;;;;;;12.30;10.48;;;;;;;;;;4982835;28;20034;-74
2022/12/21 08:18:57;;;;;;;13.27;12.05;;;;;;;;;;4986563;28;20421;-74
2022/12/21 08:21:23;;;;;;;14.65;12.38;;;;;;;;;;4983741;28;20117;-75
2022/12/21 08:23:49;;;;;;;13.95;12.55;;;;;;;;;;4987353;28;20038;-74
2022/12/21 08:26:14;;;;;;;21.83;15.52;;;;;;;;;;4983095;28;20030;-75
2022/12/21 08:28:41;;;;;;;32.22;18.63;;;;;;;;;;4982538;28;20045;-74
2022/12/21 08:31:15;;;;;;;35.33;19.35;;;;;;;;;;4983697;28;20034;-75
2022/12/21 08:33:42;;;;;;;22.27;15.40;;;;;;;;;;4982597;28;20132;-74
2022/12/21 08:36:09;;;;;;;15.32;12.57;;;;;;;;;;4984524;23;20200;-76
2022/12/21 08:38:35;;;;;;;12.70;11.50;;;;;;;;;;4936245;28;20046;-75
2022/12/21 08:41:02;;;;;;;11.93;10.80;;;;;;;;;;4945662;28;20043;-75
2022/12/21 08:43:27;;;;;;;11.75;10.35;;;;;;;;;;4950428;28;20035;-76
2022/12/21 08:45:53;;;;;;;10.77;9.77;;;;;;;;;;4940187;28;20053;-76
2022/12/21 08:48:18;;;;;;;11.10;10.15;;;;;;;;;;4941747;28;20051;-76
2022/12/21 08:50:50;;;;;;;12.18;11.07;;;;;;;;;;4955909;23;20046;-75
2022/12/21 08:53:16;;;;;;;12.25;11.32;;;;;;;;;;4935321;29;20043;-75
2022/12/21 08:55:41;;;;;;;11.20;10.30;;;;;;;;;;4934445;28;20046;-74
2022/12/21 08:58:07;;;;;;;15.57;12.63;;;;;;;;;;4952847;28;20047;-74
2022/12/21 09:00:32;;;;;;;11.80;10.75;;;;;;;;;;4948299;28;20077;-74
2022/12/21 09:02:58;;;;;;;13.07;11.63;;;;;;;;;;4946738;28;20059;-75
2022/12/21 09:05:24;;;;;;;12.65;11.52;;;;;;;;;;4948431;29;20058;-75
2022/12/21 09:07:49;;;;;;;12.60;11.40;;;;;;;;;;4948830;28;20039;-75
2022/12/21 09:10:15;;;;;;;12.00;10.80;;;;;;;;;;4948275;28;20497;-76
2022/12/21 09:12:40;;;;;;;12.18;11.10;;;;;;;;;;4955726;28;20035;-76
2022/12/21 09:15:06;;;;;;;13.70;12.45;;;;;;;;;;4953489;28;20036;-75
2022/12/21 09:17:32;;;;;;;13.80;12.30;;;;;;;;;;4952250;28;20454;-75
2022/12/21 09:19:57;;;;;;;16.65;13.80;;;;;;;;;;4952872;28;20093;-75
2022/12/21 09:22:25;;;;;;;13.27;11.88;;;;;;;;;;4945750;28;20074;-76
2022/12/21 09:24:51;;;;;;;13.13;11.80;;;;;;;;;;4954400;28;20204;-75
2022/12/21 09:27:16;;;;;;;12.05;10.50;;;;;;;;;;4960471;28;20456;-75
2022/12/21 09:29:42;;;;;;;10.68;9.68;;;;;;;;;;4956564;28;20042;-75
2022/12/21 09:32:08;;;;;;;10.65;9.75;;;;;;;;;;4956622;28;20042;-75
2022/12/21 09:34:33;;;;;;;11.07;10.02;;;;;;;;;;4953969;28;20039;-75
2022/12/21 09:36:59;;;;;;;12.82;11.52;;;;;;;;;;4952714;28;20047;-74
2022/12/21 09:39:24;;;;;;;15.73;12.00;;;;;;;;;;4943619;28;20042;-74
2022/12/21 09:42:07;;;;;;;12.35;11.23;;;;;;;;;;4953488;28;20042;-74
2022/12/21 09:45:11;;;;;;;36.40;12.70;;;;;;;;;;4951285;28;20509;-74
2022/12/21 09:48:04;;;;;;;13.57;12.27;;;;;;;;;;4960708;28;20049;-73
2022/12/21 09:50:59;;;;;;;19.45;15.15;;;;;;;;;;4952673;28;20062;-73
2022/12/21 09:53:33;;;;;;;30.67;22.08;;;;;;;;;;4949440;28;20038;-74
2022/12/21 09:56:00;;;;;;;38.40;27.33;;;;;;;;;;4953343;28;20470;-73
2022/12/21 09:58:35;;;;;;;32.20;23.02;;;;;;;;;;4956215;28;20057;-74
2022/12/21 10:01:29;;;;;;;20.67;16.05;;;;;;;;;;4951011;28;20022;-74
2022/12/21 10:04:04;;;;;;;54.10;32.08;;;;;;;;;;4959305;28;20167;-74
2022/12/21 10:06:41;;;;;;;24.27;16.38;;;;;;;;;;4950302;28;20251;-75
2022/12/21 10:09:45;;;;;;;11.80;10.82;;;;;;;;;;4952325;28;20031;-75
2022/12/21 10:12:42;;;;;;;16.88;11.80;;;;;;;;;;4969788;28;20149;-75
2022/12/21 10:15:38;;;;;;;29.20;16.88;;;;;;;;;;4973273;28;20604;-75
2022/12/21 10:18:18;;;;;;;22.02;14.68;;;;;;;;;;4970360;28;20258;-73
2022/12/21 10:20:44;;;;;;;18.55;11.35;;;;;;;;;;4969439;28;20042;-74
2022/12/21 10:23:25;;;;;;;13.07;11.63;;;;;;;;;;4975437;28;20078;-74
2022/12/21 10:25:56;;;;;;;15.27;13.73;;;;;;;;;;4966889;28;20486;-73
2022/12/21 10:28:51;;;;;;;12.82;11.65;;;;;;;;;;4954139;28;20038;-74
2022/12/21 10:31:31;;;;;;;13.30;12.10;;;;;;;;;;4978237;28;20046;-74
2022/12/21 10:33:57;;;;;;;13.55;12.13;;;;;;;;;;4966841;28;20045;-74
2022/12/21 10:36:33;;;;;;;14.82;13.43;;;;;;;;;;4963905;28;20580;-74
2022/12/21 10:38:59;;;;;;;13.02;11.73;;;;;;;;;;4972211;28;20161;-74
2022/12/21 10:41:31;;;;;;;15.48;12.52;;;;;;;;;;4965035;28;20057;-74
2022/12/21 10:44:00;;;;;;;11.68;10.68;;;;;;;;;;4965371;28;20533;-74
2022/12/21 10:46:30;;;;;;;12.07;11.05;;;;;;;;;;4970530;28;20501;-74
2022/12/21 10:49:01;;;;;;;13.55;12.15;;;;;;;;;;4961298;28;20074;-74
2022/12/21 10:51:34;;;;;;;12.55;11.45;;;;;;;;;;4949138;28;20035;-74
2022/12/21 10:54:02;;;;;;;12.90;11.60;;;;;;;;;;4950150;28;20039;-73
2022/12/21 10:56:30;;;;;;;12.73;11.43;;;;;;;;;;4951726;28;20478;-74
2022/12/21 10:59:04;;;;;;;12.70;11.60;;;;;;;;;;4944352;28;20035;-74
2022/12/21 11:01:33;;;;;;;14.07;12.85;;;;;;;;;;4928854;29;20035;-75
2022/12/21 11:04:06;;;;;;;14.70;11.65;;;;;;;;;;4943001;28;20035;-74
2022/12/21 11:06:31;;;;;;;14.10;11.57;;;;;;;;;;4950600;28;20487;-74
2022/12/21 11:08:57;;;;;;;11.45;10.45;;;;;;;;;;4955324;28;20045;-76
2022/12/21 11:11:33;;;;;;;13.68;12.27;;;;;;;;;;4947182;28;20062;-75
2022/12/21 11:14:16;;;;;;;13.50;12.23;;;;;;;;;;4948214;28;20375;-75
2022/12/21 11:16:44;;;;;;;14.75;12.55;;;;;;;;;;4954023;28;20058;-75
2022/12/21 11:19:12;;;;;;;15.35;11.70;;;;;;;;;;4950383;28;20039;-74
2022/12/21 11:21:55;;;;;;;13.93;12.15;;;;;;;;;;4960837;28;20419;-74
2022/12/21 11:24:56;;;;;;;13.43;12.10;;;;;;;;;;4950920;28;20035;-74
2022/12/21 11:27:27;;;;;;;12.45;11.23;;;;;;;;;;4963713;28;20059;-74
2022/12/21 11:30:08;;;;;;;11.70;10.80;;;;;;;;;;4960859;28;20061;-75
2022/12/21 11:32:35;;;;;;;14.00;12.80;;;;;;;;;;4946690;28;20505;-75
2022/12/21 11:35:05;;;;;;;12.35;11.25;;;;;;;;;;4963700;28;20042;-74
2022/12/21 11:37:36;;;;;;;11.80;10.70;;;;;;;;;;4960985;28;20314;-75
2022/12/21 11:40:11;;;;;;;10.63;9.77;;;;;;;;;;4960922;28;20035;-74
2022/12/21 11:42:59;;;;;;;10.70;9.90;;;;;;;;;;4964070;28;20113;-74
2022/12/21 11:45:46;;;;;;;11.98;10.98;;;;;;;;;;4950674;28;20533;-74
2022/12/21 11:48:30;;;;;;;11.93;11.02;;;;;;;;;;4962949;28;20057;-74
2022/12/21 11:51:17;;;;;;;10.70;9.95;;;;;;;;;;4963408;28;20053;-74
2022/12/21 11:54:02;;;;;;;10.48;9.75;;;;;;;;;;4959485;28;20046;-74
2022/12/21 11:56:34;;;;;;;10.20;9.50;;;;;;;;;;4944579;28;20070;-74
2022/12/21 11:59:54;;;;;;;10.00;9.30;;;;;;;;;;4945071;28;20046;-74
2022/12/21 12:02:41;;;;;;;9.43;8.82;;;;;;;;;;4914628;29;20131;-74
2022/12/21 12:05:28;;;;;;;10.05;9.38;;;;;;;;;;4910729;29;20048;-74
2022/12/21 12:08:07;;;;;;;9.43;8.73;;;;;;;;;;4909409;29;20439;-74
2022/12/21 12:10:42;;;;;;;;;;;;;;;;;;4889948;29;20048;-74
2022/12/21 12:13:26;;;;;;;9.70;8.93;;;;;;;;;;4909450;29;19914;-74
2022/12/21 12:16:24;;;;;;;10.32;8.77;;;;;;;;;;4907061;29;20054;-74
2022/12/21 12:18:52;;;;;;;9.85;9.05;;;;;;;;;;4892419;29;20055;-74
2022/12/21 12:21:29;;;;;;;8.57;8.07;;;;;;;;;;4914052;29;20553;-72
2022/12/21 12:24:14;;;;;;;11.05;8.68;;;;;;;;;;4891904;29;20056;-72
2022/12/21 12:27:17;;;;;;;8.90;8.30;;;;;;;;;;4907366;29;20106;-72
2022/12/21 12:30:01;;;;;;;9.90;9.20;;;;;;;;;;4913579;29;20087;-74
2022/12/21 12:32:55;;;;;;;9.07;8.48;;;;;;;;;;4906643;29;20053;-74
2022/12/21 12:35:58;;;;;;;9.35;8.75;;;;;;;;;;4908920;28;20047;-72
2022/12/21 12:38:50;;;;;;;10.05;9.25;;;;;;;;;;4948157;28;20039;-73
2022/12/21 12:41:28;;;;;;;9.48;8.88;;;;;;;;;;4944619;28;20473;-74
2022/12/21 12:43:54;;;;;;;9.50;8.80;;;;;;;;;;4946472;28;20720;-74
2022/12/21 12:46:22;;;;;;;8.77;8.18;;;;;;;;;;4946135;28;20130;-74
2022/12/21 12:49:14;;;;;;;8.93;8.40;;;;;;;;;;4950862;28;20102;-74
2022/12/21 12:51:52;;;;;;;9.13;8.52;;;;;;;;;;4940452;28;20498;-74
2022/12/21 12:54:40;;;;;;;8.75;8.15;;;;;;;;;;4944830;28;20123;-74
2022/12/21 12:57:16;;;;;;;8.90;8.30;;;;;;;;;;4941525;28;20049;-73
2022/12/21 12:59:42;;;;;;;9.63;9.02;;;;;;;;;;4950238;28;20418;-74
2022/12/21 13:02:16;;;;;;;9.60;8.80;;;;;;;;;;4952531;28;20039;-73
2022/12/21 13:04:56;;;;;;;8.90;8.20;;;;;;;;;;4928787;29;20039;-73
2022/12/21 13:07:50;;;;;;;9.38;8.77;;;;;;;;;;4948652;28;20386;-73
2022/12/21 13:11:00;;;;;;;9.15;8.55;;;;;;;;;;4941401;28;20039;-73
2022/12/21 13:13:58;;;;;;;8.77;8.18;;;;;;;;;;4940052;28;20062;-73
2022/12/21 13:16:31;;;;;;;9.10;8.50;;;;;;;;;;4943192;28;20471;-73
2022/12/21 13:19:04;;;;;;;9.40;8.50;;;;;;;;;;4947108;28;20050;-73
2022/12/21 13:21:32;;;;;;;8.85;8.25;;;;;;;;;;4952078;28;20266;-72
2022/12/21 13:24:19;;;;;;;9.38;8.48;;;;;;;;;;4942524;28;20043;-73
2022/12/21 13:26:48;;;;;;;9.73;9.02;;;;;;;;;;4944748;28;20129;-73
2022/12/21 13:29:27;;;;;;;8.95;8.35;;;;;;;;;;4941114;28;20035;-73
2022/12/21 13:32:09;;;;;;;8.32;7.82;;;;;;;;;;4945818;28;20038;-73
2022/12/21 13:34:36;;;;;;;8.38;7.88;;;;;;;;;;4944542;28;20145;-73
2022/12/21 13:37:17;;;;;;;9.13;8.52;;;;;;;;;;4945541;28;20250;-73
2022/12/21 13:40:00;;;;;;;8.90;8.20;;;;;;;;;;4945812;28;20032;-73
2022/12/21 13:42:35;;;;;;;8.57;8.07;;;;;;;;;;4944368;29;20070;-73
2022/12/21 13:45:16;;;;;;;8.63;8.00;;;;;;;;;;4959184;28;20141;-73
2022/12/21 13:47:43;;;;;;;8.48;7.78;;;;;;;;;;4955923;28;20125;-73
2022/12/21 13:50:23;;;;;;;8.80;8.20;;;;;;;;;;4954333;28;20038;-73
2022/12/21 13:53:08;;;;;;;8.10;7.60;;;;;;;;;;4947535;28;20043;-73
2022/12/21 13:56:06;;;;;;;8.93;8.32;;;;;;;;;;4952466;28;20061;-73
2022/12/21 13:58:34;;;;;;;8.00;7.50;;;;;;;;;;4953094;28;20135;-73
2022/12/21 14:01:31;;;;;;;8.10;7.70;;;;;;;;;;4946590;29;20035;-73
2022/12/21 14:03:56;;;;;;;8.10;7.60;;;;;;;;;;4945232;28;20145;-74
2022/12/21 14:07:07;;;;;;;9.07;8.48;;;;;;;;;;4953227;28;20180;-74
2022/12/21 14:09:49;;;;;;;8.80;8.10;;;;;;;;;;4952254;28;20035;-74
2022/12/21 14:12:27;;;;;;;8.48;7.90;;;;;;;;;;4940957;28;20035;-74
2022/12/21 14:15:05;;;;;;;9.07;8.40;;;;;;;;;;4956692;28;20086;-74
2022/12/21 14:17:33;;;;;;;10.02;9.13;;;;;;;;;;4949695;28;20050;-73
2022/12/21 14:20:08;;;;;;;11.85;10.75;;;;;;;;;;4955671;28;20043;-73
2022/12/21 14:22:39;;;;;;;10.18;9.27;;;;;;;;;;4948163;28;20047;-73
2022/12/21 14:25:19;;;;;;;11.20;9.75;;;;;;;;;;4953593;28;20334;-73
2022/12/21 14:28:10;;;;;;;8.95;8.35;;;;;;;;;;4951108;28;20046;-73
2022/12/21 14:30:36;;;;;;;10.25;9.38;;;;;;;;;;4949467;28;20129;-73
2022/12/21 14:33:06;;;;;;;9.32;8.50;;;;;;;;;;4950713;28;20635;-73
2022/12/21 14:35:41;;;;;;;11.45;10.45;;;;;;;;;;4945880;28;20045;-73
2022/12/21 14:38:25;;;;;;;9.93;9.13;;;;;;;;;;4941915;28;20087;-73
2022/12/21 14:40:59;;;;;;;9.25;8.55;;;;;;;;;;4953130;28;20054;-74
2022/12/21 14:43:25;;;;;;;9.38;8.73;;;;;;;;;;4950489;28;20569;-73
2022/12/21 14:45:51;;;;;;;9.50;8.80;;;;;;;;;;4943605;28;20070;-73
2022/12/21 14:48:28;;;;;;;10.25;9.43;;;;;;;;;;4946883;28;20116;-73
2022/12/21 14:50:57;;;;;;;9.65;9.05;;;;;;;;;;4952513;28;20034;-73
2022/12/21 14:53:25;;;;;;;11.13;10.00;;;;;;;;;;4948003;28;20035;-73
2022/12/21 14:56:08;;;;;;;10.07;9.35;;;;;;;;;;4942819;28;20549;-73
2022/12/21 14:58:35;;;;;;;11.20;10.38;;;;;;;;;;4945046;28;20509;-73
2022/12/21 15:01:13;;;;;;;9.88;8.98;;;;;;;;;;4949036;28;20032;-73
2022/12/21 15:03:46;;;;;;;9.10;8.45;;;;;;;;;;4947407;28;20379;-73
2022/12/21 15:06:28;;;;;;;9.02;8.32;;;;;;;;;;4950457;28;20499;-74